Walcott, Canada
Current Conditions -  °F | °C
As of 7:00 PM on Saturday 22 Nov 2014 (Local Time) from CYYD Reporting Station
Overcast Overcast  
Wind Chill: 34°   Ceiling: 6000
Heat Index: 34°   Visibility: 20mi
Dew Point: 32°   Wind: 2mph
Humidity: 93%   Direction: NA
Pressure: 29.6"   Gusts: NA
Location:  54.52°N, 126.85°W
Report Text: CYYD 230300Z VRB02KT 20SM OVC060 01/00 A2960 RMK SC8 SLP041
Loading
Personal Weather Stations






























Interactive Weather Map New forecast layout! Learn more

10-Day Weather Forecast

Advertisements
Track Severe Weather on mobile